Latest Weather Observations for Archerfield

IDQ60801

Issued at 8:35 pm EST Thursday 24 April 2014 (issued every 30 minutes, with the page automatically refreshed every 10 minutes)

About weather observations | Map of weather stations | Latest weather observations for QLD | Other Formats
Station Details ID: 040211 Name: ARCHERFIELD AIRPORT Lat: -27.57 Lon: 153.01 Height: 12.5 m
Data from the previous 72 hours. | See also: Recent months at Archerfield
Date/Time
EST
Temp
°C
App
Temp
°C
Dew
Point
Rel
Hum
%
Delta-T
°C
Wind Press
QNH
hPa
Press
MSL
hPa
Rain
since 9 am
mm
Dir
 
Spd
km/h
Gust
km/h
Spd
kts
Gust
kts
24/08:30pm 20.0 20.8 17.4 85 1.6 NNE 9 11 5 6 1016.2 - 0.0
24/08:00pm 20.6 21.2 17.6 83 1.8 N 11 13 6 7 1016.2 - 0.0
24/07:30pm 21.4 21.3 17.8 80 2.2 NNE 15 19 8 10 1015.9 - 0.0
24/07:00pm 20.8 21.0 16.8 78 2.4 NNE 11 13 6 7 1015.7 - 0.0
24/06:30pm 21.3 20.9 16.3 73 3.0 NNE 13 17 7 9 1015.3 - 0.0
24/06:00pm 22.2 21.8 15.3 65 4.1 NE 11 17 6 9 1014.6 1014.5 0.0
24/05:30pm 23.1 22.1 14.7 59 5.0 NE 13 17 7 9 1014.5 - 0.0
24/05:00pm 24.1 21.8 14.2 54 5.8 NNE 19 24 10 13 1014.3 - 0.0
24/04:30pm 25.6 24.0 15.0 52 6.4 N 17 20 9 11 1014.1 - 0.0
24/04:00pm 26.9 25.4 16.2 52 6.6 NNE 19 26 10 14 1013.5 - 0.0
24/03:30pm 28.1 28.3 15.7 46 7.6 NNE 9 19 5 10 1013.3 - 0.0
24/03:00pm 28.5 28.0 12.8 38 9.2 NW 7 11 4 6 1013.5 1013.4 0.0
24/02:30pm 29.0 29.0 13.6 38 9.2 N 6 9 3 5 1013.7 - 0.0
24/02:00pm 28.3 28.1 13.0 39 9.0 SSE 6 13 3 7 1013.9 - 0.0
24/01:30pm 28.2 27.4 12.9 38 9.0 SSW 9 13 5 7 1014.2 - 0.0
24/01:00pm 27.6 27.0 14.6 45 7.8 SW 11 17 6 9 1014.6 - 0.0
24/12:30pm 27.0 27.7 14.4 46 7.5 W 4 13 2 7 1015.2 - 0.0
24/12:00pm 26.5 26.5 15.2 49 6.8 W 9 17 5 9 1015.7 1015.6 0.0
24/11:30am 26.4 26.7 16.0 52 6.4 W 9 17 5 9 1016.1 - 0.0
24/11:00am 25.8 27.1 17.2 59 5.4 SSW 6 15 3 8 1016.5 - 0.0
24/10:30am 24.2 24.3 16.5 62 4.7 SSW 11 15 6 8 1017.1 - 0.0
24/10:00am 23.3 23.9 16.8 67 4.0 SW 9 13 5 7 1017.8 - 0.0
24/09:30am 22.0 22.4 16.3 70 3.5 W 9 11 5 6 1018.2 - 0.0
24/09:00am 21.1 21.3 16.7 76 2.7 WSW 11 15 6 8 1018.1 1018.0 0.0
24/08:30am 20.2 20.6 16.4 79 2.3 SW 9 13 5 7 1017.9 - 0.0
24/08:00am 18.6 19.3 16.0 85 1.5 SSW 7 9 4 5 1017.9 - 0.0
24/07:30am 16.8 17.4 15.2 90 0.9 SW 6 7 3 4 1017.8 - 0.0
24/07:00am 15.8 16.6 14.8 94 0.6 SSW 4 7 2 4 1017.0 - 0.0
24/06:30am 14.5 15.7 13.9 96 0.3 CALM 0 0 0 0 1016.8 - 0.0
24/06:00am 14.0 15.0 13.2 95 0.4 S 0 0 0 0 1016.5 1016.4 0.0
24/05:33am 14.6 15.9 14.0 96 0.3 CALM 0 0 0 0 1016.3 - 0.0
24/05:30am 14.6 15.9 14.0 96 0.3 CALM 0 0 0 0 1016.3 - 0.0
24/05:13am 13.5 14.3 12.4 93 0.6 CALM 0 0 0 0 1016.3 - 0.0
24/05:00am 14.6 15.9 14.0 96 0.3 CALM 0 0 0 0 1016.3 - 0.0
24/04:30am 13.7 14.5 12.4 92 0.7 CALM 0 0 0 0 1016.1 - 0.0
24/04:00am 15.1 15.3 14.1 94 0.6 S 6 7 3 4 1015.9 - 0.0
24/03:31am 15.8 17.5 15.2 96 0.3 CALM 0 0 0 0 1016.0 - 0.0
24/03:30am 15.8 17.5 15.2 96 0.3 CALM 0 0 0 0 1016.0 - 0.0
24/03:04am 14.6 15.6 13.1 91 0.8 CALM 0 0 0 0 1016.2 - 0.0
24/03:00am 15.6 17.0 14.5 93 0.6 CALM 0 4 0 2 1016.2 1016.1 0.0
24/02:30am 15.6 17.2 14.8 95 0.5 CALM 0 6 0 3 1016.2 - 0.0
24/02:00am 14.7 15.7 13.1 90 0.9 CALM 0 0 0 0 1016.4 - 0.0
24/01:30am 16.3 16.7 15.3 94 0.6 S 7 7 4 4 1016.6 - 0.0
24/01:00am 15.9 16.1 14.8 93 0.6 S 7 7 4 4 1016.9 - 0.0
24/12:30am 16.3 17.9 15.0 92 0.8 CALM 0 0 0 0 1017.1 - 0.0
24/12:00am 16.5 16.4 15.0 91 0.9 S 9 11 5 6 1017.4 1017.3 0.0
 
Date/Time
EST
Temp
°C
App
Temp
°C
Dew
Point
Rel
Hum
%
Delta-T
°C
Wind Press
QNH
hPa
Press
MSL
hPa
Rain
since 9 am
mm
Dir
 
Spd
km/h
Gust
km/h
Spd
kts
Gust
kts
23/11:30pm 17.6 17.5 16.1 91 0.9 S 11 13 6 7 1017.6 - 0.0
23/11:00pm 17.8 18.1 16.1 90 1.0 S 9 11 5 6 1017.7 - 0.0
23/10:30pm 19.8 21.3 17.6 87 1.3 NNE 6 6 3 3 1017.7 - 0.0
23/10:00pm 19.2 20.0 17.2 88 1.2 NNE 9 9 5 5 1017.7 - 0.0
23/09:30pm 18.5 18.6 16.5 88 1.2 N 11 15 6 8 1017.7 - 0.0
23/09:00pm 19.8 20.2 17.2 85 1.6 N 11 15 6 8 1017.5 1017.4 0.0
23/08:30pm 20.1 21.3 17.3 84 1.7 N 7 9 4 5 1017.4 - 0.0
23/08:00pm 19.8 20.3 16.6 82 1.9 N 9 11 5 6 1017.5 - 0.0
23/07:30pm 20.6 20.8 16.8 79 2.3 N 11 15 6 8 1017.2 - 0.0
23/07:00pm 21.0 20.8 16.6 76 2.7 N 13 19 7 10 1017.0 - 0.0
23/06:30pm 21.8 20.8 16.7 73 3.1 N 17 22 9 12 1016.8 - 0.0
23/06:00pm 22.4 21.3 16.4 69 3.6 N 17 22 9 12 1016.5 1016.4 0.0
23/05:30pm 22.7 21.0 15.8 65 4.2 N 19 22 10 12 1016.2 - 0.0
23/05:00pm 24.1 22.2 15.1 57 5.4 N 19 24 10 13 1016.0 - 0.0
23/04:30pm 25.5 23.6 14.3 50 6.7 NNE 17 20 9 11 1015.6 - 0.0
23/04:00pm 26.3 24.4 14.1 47 7.3 NNE 17 22 9 12 1015.4 - 0.0
23/03:30pm 27.9 27.1 11.0 35 9.6 W 6 15 3 8 1015.5 - 0.0
23/03:00pm 28.1 27.5 12.4 37 9.1 NNW 7 11 4 6 1015.6 1015.5 0.0
23/02:30pm 27.8 27.6 13.0 40 8.7 W 6 15 3 8 1015.7 - 0.0
23/02:00pm 27.0 26.0 11.1 37 9.0 W 7 13 4 7 1015.9 - 0.0
23/01:30pm 27.7 26.5 8.1 29 10.6 NW 4 11 2 6 1016.0 - 0.0
23/01:00pm 27.2 26.0 10.4 35 9.4 NW 7 13 4 7 1016.4 - 0.0
23/12:30pm 26.6 24.3 7.6 30 10.1 W 9 15 5 8 1016.9 - 0.0
23/12:00pm 26.6 25.3 12.6 42 8.1 W 11 15 6 8 1017.5 1017.4 0.0
23/11:30am 25.9 25.5 12.4 43 7.8 WSW 6 15 3 8 1018.2 - 0.0
23/11:00am 25.5 26.0 16.6 58 5.5 W 9 17 5 9 1018.6 - 0.0
23/10:30am 24.4 24.7 16.1 60 5.1 SW 9 13 5 7 1019.2 - 0.0
23/10:00am 23.6 24.1 16.6 65 4.3 SW 9 13 5 7 1019.3 - 0.0
23/09:30am 22.8 23.2 16.4 67 3.9 SW 9 13 5 7 1019.8 - 0.0
23/09:00am 21.2 21.9 16.2 73 3.0 SW 7 9 4 5 1020.0 1019.9 0.0
23/08:30am 19.6 20.2 15.9 79 2.2 WSW 7 11 4 6 1020.1 - 0.0
23/08:00am 17.9 19.2 15.2 84 1.6 WSW 2 7 1 4 1020.2 - 0.0
23/07:30am 16.4 16.8 14.8 90 0.9 S 6 7 3 4 1020.1 - 0.0
23/07:00am 14.9 14.4 13.8 93 0.6 S 9 9 5 5 1019.9 - 0.0
23/06:30am 14.5 14.1 13.0 91 0.8 S 7 9 4 5 1019.6 - 0.0
23/06:00am 15.1 16.4 14.0 93 0.6 CALM 0 0 0 0 1019.4 1019.3 0.0
23/05:30am 14.9 16.0 13.6 92 0.7 CALM 0 0 0 0 1019.3 - 0.0
23/05:00am 14.8 15.8 13.2 90 0.9 CALM 0 0 0 0 1019.1 - 0.0
23/04:30am 15.1 15.9 13.8 92 0.7 S 2 7 1 4 1018.7 - 0.0
23/04:00am 14.8 14.6 13.5 92 0.7 SSW 7 9 4 5 1018.3 - 0.0
23/03:30am 16.1 16.1 14.1 88 1.1 S 7 9 4 5 1018.3 - 0.0
23/03:00am 15.6 15.5 13.8 89 1.0 S 7 9 4 5 1018.4 1018.3 0.0
23/02:30am 15.2 15.0 13.7 91 0.8 SSW 7 9 4 5 1018.7 - 0.0
23/02:00am 15.9 15.9 14.1 89 1.0 S 7 9 4 5 1018.8 - 0.0
23/01:30am 15.7 16.0 13.5 87 1.2 S 4 6 2 3 1018.9 - 0.0
23/01:00am 16.1 16.1 14.3 89 1.0 S 7 9 4 5 1019.1 - 0.0
23/12:30am 16.0 15.7 13.3 84 1.5 S 7 9 4 5 1019.2 - 0.0
23/12:00am 16.4 15.8 14.6 89 1.0 S 11 13 6 7 1019.3 1019.2 0.0
 
Date/Time
EST
Temp
°C
App
Temp
°C
Dew
Point
Rel
Hum
%
Delta-T
°C
Wind Press
QNH
hPa
Press
MSL
hPa
Rain
since 9 am
mm
Dir
 
Spd
km/h
Gust
km/h
Spd
kts
Gust
kts
22/11:30pm 16.2 16.3 14.0 87 1.2 SSE 6 9 3 5 1019.3 - 0.0
22/11:00pm 17.7 18.8 13.6 77 2.3 CALM 0 0 0 0 1019.3 - 0.0
22/10:30pm 18.8 20.5 15.1 79 2.2 CALM 0 0 0 0 1019.5 - 0.0
22/10:00pm 20.1 20.8 15.5 75 2.7 NNE 6 6 3 3 1019.7 - 0.0
22/09:30pm 19.7 20.2 15.1 75 2.7 NNE 6 7 3 4 1019.7 - 0.0
22/09:00pm 19.1 19.3 14.6 75 2.6 NNE 7 7 4 4 1019.7 1019.6 0.0
22/08:30pm 19.9 20.2 14.5 71 3.1 NNE 6 7 3 4 1019.9 - 0.0
22/08:00pm 20.6 21.1 14.9 70 3.4 NE 6 7 3 4 1019.7 - 0.0
22/07:30pm 19.8 20.0 14.6 72 3.0 NNE 7 9 4 5 1019.5 - 0.0
22/07:00pm 21.0 20.9 14.9 68 3.6 NNE 9 9 5 5 1019.4 - 0.0
22/06:30pm 20.7 20.5 14.6 68 3.6 NNE 9 13 5 7 1019.2 - 0.0
22/06:00pm 21.5 20.5 14.6 65 4.0 NE 13 19 7 10 1018.9 1018.8 0.0
22/05:30pm 22.1 20.6 14.2 61 4.6 NE 15 19 8 10 1018.7 - 0.0
22/05:00pm 23.4 21.5 14.1 56 5.5 N 17 24 9 13 1018.6 - 0.0
22/04:30pm 24.4 21.9 13.6 51 6.3 N 19 24 10 13 1018.4 - 0.0
22/04:00pm 25.5 22.2 12.7 45 7.4 N 22 30 12 16 1018.4 - 0.0
22/03:30pm 26.6 23.9 13.0 43 7.9 N 19 26 10 14 1018.3 - 0.0
22/03:00pm 27.0 24.6 12.6 41 8.4 NNE 17 24 9 13 1018.3 1018.2 0.0
22/02:30pm 26.8 24.6 12.1 40 8.5 NNE 15 22 8 12 1018.5 - 0.0
22/02:00pm 27.4 24.9 13.4 42 8.3 N 19 24 10 13 1018.5 - 0.0
22/01:30pm 27.0 25.7 12.6 41 8.4 NE 11 22 6 12 1018.4 - 0.0
22/01:00pm 27.1 25.6 13.1 42 8.2 N 13 26 7 14 1019.0 - 0.0
22/12:30pm 27.6 28.0 16.2 49 7.0 N 9 24 5 13 1019.4 - 0.0
22/12:00pm 26.0 25.4 14.5 49 6.9 NW 11 19 6 10 1020.1 1020.0 0.0
22/11:30am 25.2 24.7 14.9 52 6.2 NNE 11 15 6 8 1020.9 - 0.0
22/11:00am 25.5 24.5 14.6 51 6.5 NNW 13 22 7 12 1021.4 - 0.0
22/10:30am 25.3 25.8 15.6 55 5.9 NW 7 13 4 7 1021.6 - 0.0
22/10:00am 24.1 24.7 15.3 58 5.3 SSW 6 9 3 5 1021.5 - 0.0
22/09:30am 23.4 24.5 17.2 68 3.8 SW 7 11 4 6 1021.8 - 0.0
22/09:00am 22.1 23.4 17.5 75 2.8 SW 7 11 4 6 1022.0 1021.9 0.0
22/08:30am 20.4 21.5 16.6 79 2.3 WSW 6 9 3 5 1022.3 - 0.0
22/08:00am 19.1 20.5 16.3 84 1.7 WSW 4 7 2 4 1022.0 - 0.0
22/07:30am 17.6 19.5 15.8 89 1.1 CALM 0 7 0 4 1021.8 - 0.0
22/07:00am 16.3 18.0 15.2 93 0.6 CALM 0 2 0 1 1021.7 - 0.0
22/06:30am 15.5 15.6 14.5 94 0.6 S 7 9 4 5 1021.4 - 0.0
22/06:00am 15.3 16.3 14.3 94 0.6 S 2 7 1 4 1021.2 1021.1 0.0
22/05:30am 15.4 16.8 14.4 94 0.6 CALM 0 0 0 0 1021.0 - 0.0
22/05:20am 15.4 16.8 14.4 94 0.6 CALM 0 0 0 0 1020.9 - 0.0
22/05:00am 15.1 16.3 13.8 92 0.7 CALM 0 0 0 0 1020.9 - 0.0
22/04:56am 15.1 16.3 13.8 92 0.7 CALM 0 0 0 0 1020.9 - 0.0
22/04:30am 15.9 17.5 14.8 93 0.6 CALM 0 0 0 0 1020.7 - 0.0
22/04:00am 16.1 17.7 15.0 93 0.6 CALM 0 0 0 0 1020.4 - 0.0
22/03:30am 16.1 16.6 15.1 94 0.6 S 6 7 3 4 1020.2 - 0.0
22/03:00am 16.1 16.1 15.1 94 0.6 SSW 9 11 5 6 1020.1 1020.0 0.0
22/02:30am 16.6 16.7 15.5 93 0.6 S 9 11 5 6 1020.1 - 0.0
22/02:00am 16.8 17.2 15.3 91 0.9 S 7 9 4 5 1020.3 - 0.0
22/01:30am 17.3 17.1 15.8 91 0.9 S 11 13 6 7 1020.4 - 0.0
22/01:00am 17.7 18.0 16.0 90 1.0 S 9 11 5 6 1020.4 - 0.0
22/12:30am 17.9 19.6 15.3 85 1.5 CALM 0 0 0 0 1020.6 - 0.0
22/12:00am 19.2 19.7 15.5 79 2.2 NNE 7 7 4 4 1020.7 1020.6 0.0
 
Date/Time
EST
Temp
°C
App
Temp
°C
Dew
Point
Rel
Hum
%
Delta-T
°C
Wind Press
QNH
hPa
Press
MSL
hPa
Rain
since 9 am
mm
Dir
 
Spd
km/h
Gust
km/h
Spd
kts
Gust
kts
21/11:30pm 19.6 20.3 16.1 80 2.1 NNE 7 9 4 5 1020.7 - 0.0
21/11:00pm 19.3 19.1 15.8 80 2.1 NNE 11 13 6 7 1020.8 - 0.0
21/10:30pm 19.6 19.6 16.3 81 2.0 N 11 15 6 8 1020.7 - 0.0
21/10:00pm 20.1 19.9 16.7 81 2.1 N 13 19 7 10 1020.8 - 0.0
21/09:30pm 19.3 19.7 16.3 83 1.8 N 9 13 5 7 1020.7 - 0.0
21/09:00pm 19.3 19.7 16.3 83 1.8 N 9 13 5 7 1020.6 1020.5 0.0

Other Formats:

Comma delimited format used in spreadsheet applications
http://www.bom.gov.au/fwo/IDQ60801/IDQ60801.94575.axf

JavaScript Object Notation format (JSON) in row-major order
http://www.bom.gov.au/fwo/IDQ60801/IDQ60801.94575.json